Terminal Aerodrome Forecast
Issued by NWS

Home | Current Version | Previous Version | Text Only | Print | Product List | Glossary On
Versions: 1 2 3 4 5 6 7 8 9 10 11 12 13
000
FTUS44 KMAF 061120
TAFINK
TAF
KINK 061120Z 0612/0712 15011KT P6SM FEW130 SCT200
     FM061900 19013G20KT P6SM SCT080 BKN130
      TEMPO 0621/0701 VRB20G30KT 4SM TSRA BKN070CB=

USA.gov is the U.S. government's official web portal to all federal, state and local government web resources and services.